Terminal Aerodrome Forecast
Issued by NWS

Home | Current Version | Previous Version | Text Only | Print | Product List | Glossary On
Versions: 1 2 3 4 5 6 7 8 9 10 11 12 13 14 15 16 17 18 19 20 21
000
FTUS44 KOHX 222320
TAFCKV
TAF
KCKV 222320Z 2300/2324 15008KT 6SM -RA OVC040
     FM230200 17006KT 5SM -SHRA OVC025
     FM231200 28008KT P6SM OVC007
     FM231900 28011G17KT P6SM BKN020
     FM232200 28009KT P6SM SCT250=

USA.gov is the U.S. government's official web portal to all federal, state and local government web resources and services.